sensor_id;sensor_type;location;lat;lon;timestamp;pressure;altitude;pressure_sealevel;temperature;humidity
11349;BME280;5729;43.570;27.826;2023-08-08T00:02:04;98689.69;;;22.38;100.00
11349;BME280;5729;43.570;27.826;2023-08-08T00:04:31;98684.66;;;22.37;100.00
11349;BME280;5729;43.570;27.826;2023-08-08T00:06:56;98683.69;;;22.31;100.00
11349;BME280;5729;43.570;27.826;2023-08-08T00:09:22;98678.09;;;22.34;100.00
11349;BME280;5729;43.570;27.826;2023-08-08T00:11:47;98679.75;;;22.32;100.00
11349;BME280;5729;43.570;27.826;2023-08-08T00:14:14;98674.94;;;22.23;100.00
11349;BME280;5729;43.570;27.826;2023-08-08T00:16:39;98671.22;;;22.17;100.00
11349;BME280;5729;43.570;27.826;2023-08-08T00:19:05;98670.56;;;22.13;100.00
11349;BME280;5729;43.570;27.826;2023-08-08T00:21:30;98663.25;;;22.10;100.00
11349;BME280;5729;43.570;27.826;2023-08-08T00:23:55;98658.63;;;22.07;100.00
11349;BME280;5729;43.570;27.826;2023-08-08T00:26:21;98662.06;;;21.98;100.00
11349;BME280;5729;43.570;27.826;2023-08-08T00:28:46;98658.19;;;21.96;100.00
11349;BME280;5729;43.570;27.826;2023-08-08T00:31:12;98663.91;;;22.01;100.00
11349;BME280;5729;43.570;27.826;2023-08-08T00:33:37;98671.69;;;22.03;100.00
11349;BME280;5729;43.570;27.826;2023-08-08T00:36:03;98674.09;;;22.01;100.00
11349;BME280;5729;43.570;27.826;2023-08-08T00:38:28;98677.72;;;21.98;100.00
11349;BME280;5729;43.570;27.826;2023-08-08T00:40:54;98680.47;;;21.98;100.00
11349;BME280;5729;43.570;27.826;2023-08-08T00:43:19;98680.38;;;21.89;100.00
11349;BME280;5729;43.570;27.826;2023-08-08T00:45:45;98682.88;;;21.96;100.00
11349;BME280;5729;43.570;27.826;2023-08-08T00:48:11;98682.03;;;21.99;100.00
11349;BME280;5729;43.570;27.826;2023-08-08T00:50:37;98680.13;;;21.96;100.00
11349;BME280;5729;43.570;27.826;2023-08-08T00:53:04;98672.00;;;21.92;100.00
11349;BME280;5729;43.570;27.826;2023-08-08T00:55:30;98683.75;;;21.93;100.00
11349;BME280;5729;43.570;27.826;2023-08-08T00:57:56;98679.63;;;21.88;100.00
11349;BME280;5729;43.570;27.826;2023-08-08T01:00:22;98692.13;;;21.77;100.00
11349;BME280;5729;43.570;27.826;2023-08-08T01:02:47;98698.25;;;21.81;100.00
11349;BME280;5729;43.570;27.826;2023-08-08T01:05:13;98698.25;;;21.81;100.00
11349;BME280;5729;43.570;27.826;2023-08-08T01:07:52;98691.81;;;21.74;100.00
11349;BME280;5729;43.570;27.826;2023-08-08T01:10:39;98691.69;;;21.78;100.00
11349;BME280;5729;43.570;27.826;2023-08-08T01:13:10;98694.88;;;21.77;100.00
11349;BME280;5729;43.570;27.826;2023-08-08T01:15:37;98696.84;;;21.76;100.00
11349;BME280;5729;43.570;27.826;2023-08-08T01:18:04;98703.97;;;21.73;100.00
11349;BME280;5729;43.570;27.826;2023-08-08T01:20:32;98702.78;;;21.74;100.00
11349;BME280;5729;43.570;27.826;2023-08-08T01:23:22;98696.19;;;21.72;100.00
11349;BME280;5729;43.570;27.826;2023-08-08T01:25:49;98701.78;;;21.68;100.00
11349;BME280;5729;43.570;27.826;2023-08-08T01:28:15;98698.84;;;21.63;100.00
11349;BME280;5729;43.570;27.826;2023-08-08T01:30:41;98694.22;;;21.60;100.00
11349;BME280;5729;43.570;27.826;2023-08-08T01:33:07;98704.66;;;21.52;100.00
11349;BME280;5729;43.570;27.826;2023-08-08T01:35:37;98702.44;;;21.47;100.00
11349;BME280;5729;43.570;27.826;2023-08-08T01:38:14;98696.63;;;21.45;100.00
11349;BME280;5729;43.570;27.826;2023-08-08T01:40:43;98696.94;;;21.34;100.00
11349;BME280;5729;43.570;27.826;2023-08-08T01:43:09;98695.84;;;21.45;100.00
11349;BME280;5729;43.570;27.826;2023-08-08T01:45:36;98692.38;;;21.44;100.00
11349;BME280;5729;43.570;27.826;2023-08-08T01:48:09;98700.47;;;21.48;100.00
11349;BME280;5729;43.570;27.826;2023-08-08T01:50:35;98702.25;;;21.54;100.00
11349;BME280;5729;43.570;27.826;2023-08-08T01:53:01;98701.69;;;21.59;100.00
11349;BME280;5729;43.570;27.826;2023-08-08T01:55:27;98696.75;;;21.54;100.00
11349;BME280;5729;43.570;27.826;2023-08-08T01:57:52;98703.44;;;21.53;100.00
11349;BME280;5729;43.570;27.826;2023-08-08T02:00:18;98699.50;;;21.54;100.00
11349;BME280;5729;43.570;27.826;2023-08-08T02:02:43;98691.56;;;21.56;100.00
11349;BME280;5729;43.570;27.826;2023-08-08T02:05:09;98692.81;;;21.43;100.00
11349;BME280;5729;43.570;27.826;2023-08-08T02:07:34;98697.72;;;21.48;100.00
11349;BME280;5729;43.570;27.826;2023-08-08T02:10:00;98692.03;;;21.42;100.00
11349;BME280;5729;43.570;27.826;2023-08-08T02:12:25;98689.94;;;21.46;100.00
11349;BME280;5729;43.570;27.826;2023-08-08T02:14:51;98689.84;;;21.37;100.00
11349;BME280;5729;43.570;27.826;2023-08-08T02:17:16;98691.28;;;21.42;100.00
11349;BME280;5729;43.570;27.826;2023-08-08T02:19:41;98688.28;;;21.36;100.00
11349;BME280;5729;43.570;27.826;2023-08-08T02:22:08;98685.78;;;21.29;100.00
11349;BME280;5729;43.570;27.826;2023-08-08T02:24:34;98688.19;;;21.27;100.00
11349;BME280;5729;43.570;27.826;2023-08-08T02:26:59;98682.22;;;21.16;100.00
11349;BME280;5729;43.570;27.826;2023-08-08T02:29:25;98689.69;;;21.15;100.00
11349;BME280;5729;43.570;27.826;2023-08-08T02:31:50;98690.31;;;21.07;100.00
11349;BME280;5729;43.570;27.826;2023-08-08T02:34:16;98693.06;;;21.07;100.00
11349;BME280;5729;43.570;27.826;2023-08-08T02:36:41;98685.28;;;21.05;100.00
11349;BME280;5729;43.570;27.826;2023-08-08T02:39:06;98689.66;;;21.02;100.00
11349;BME280;5729;43.570;27.826;2023-08-08T02:41:32;98695.22;;;20.86;100.00
11349;BME280;5729;43.570;27.826;2023-08-08T02:43:57;98707.59;;;20.91;100.00
11349;BME280;5729;43.570;27.826;2023-08-08T02:46:23;98698.03;;;20.83;100.00
11349;BME280;5729;43.570;27.826;2023-08-08T02:48:48;98714.06;;;20.84;100.00
11349;BME280;5729;43.570;27.826;2023-08-08T02:51:14;98708.66;;;20.81;100.00
11349;BME280;5729;43.570;27.826;2023-08-08T02:53:39;98717.75;;;20.78;100.00
11349;BME280;5729;43.570;27.826;2023-08-08T02:56:04;98723.41;;;20.71;100.00
11349;BME280;5729;43.570;27.826;2023-08-08T02:58:30;98723.94;;;20.65;100.00
11349;BME280;5729;43.570;27.826;2023-08-08T03:00:55;98727.06;;;20.80;100.00
11349;BME280;5729;43.570;27.826;2023-08-08T03:03:21;98729.28;;;20.85;100.00
11349;BME280;5729;43.570;27.826;2023-08-08T03:05:46;98733.88;;;20.88;100.00
11349;BME280;5729;43.570;27.826;2023-08-08T03:08:12;98741.09;;;20.82;100.00
11349;BME280;5729;43.570;27.826;2023-08-08T03:10:37;98752.31;;;20.88;100.00
11349;BME280;5729;43.570;27.826;2023-08-08T03:13:02;98752.06;;;20.82;100.00
11349;BME280;5729;43.570;27.826;2023-08-08T03:15:28;98761.13;;;20.79;100.00
11349;BME280;5729;43.570;27.826;2023-08-08T03:17:53;98766.19;;;20.81;100.00
11349;BME280;5729;43.570;27.826;2023-08-08T03:20:19;98762.16;;;20.85;100.00
11349;BME280;5729;43.570;27.826;2023-08-08T03:22:44;98770.03;;;20.83;100.00
11349;BME280;5729;43.570;27.826;2023-08-08T03:25:10;98774.69;;;20.70;100.00
11349;BME280;5729;43.570;27.826;2023-08-08T03:27:35;98771.38;;;20.62;100.00
11349;BME280;5729;43.570;27.826;2023-08-08T03:30:01;98769.56;;;20.56;100.00
11349;BME280;5729;43.570;27.826;2023-08-08T03:32:28;98778.97;;;20.71;100.00
11349;BME280;5729;43.570;27.826;2023-08-08T03:34:53;98770.81;;;20.67;100.00
11349;BME280;5729;43.570;27.826;2023-08-08T03:37:19;98776.94;;;20.59;100.00
11349;BME280;5729;43.570;27.826;2023-08-08T03:39:44;98771.78;;;20.61;100.00
11349;BME280;5729;43.570;27.826;2023-08-08T03:42:10;98777.19;;;20.48;100.00
11349;BME280;5729;43.570;27.826;2023-08-08T03:44:35;98773.69;;;20.48;100.00
11349;BME280;5729;43.570;27.826;2023-08-08T03:47:01;98777.56;;;20.50;100.00
11349;BME280;5729;43.570;27.826;2023-08-08T03:49:26;98780.91;;;20.42;100.00
11349;BME280;5729;43.570;27.826;2023-08-08T03:51:52;98785.84;;;20.47;100.00
11349;BME280;5729;43.570;27.826;2023-08-08T03:54:17;98782.94;;;20.38;100.00
11349;BME280;5729;43.570;27.826;2023-08-08T03:56:43;98786.38;;;20.42;100.00
11349;BME280;5729;43.570;27.826;2023-08-08T03:59:09;98783.97;;;20.44;100.00
11349;BME280;5729;43.570;27.826;2023-08-08T04:01:35;98792.69;;;20.39;100.00
11349;BME280;5729;43.570;27.826;2023-08-08T04:04:03;98791.75;;;20.29;100.00
11349;BME280;5729;43.570;27.826;2023-08-08T04:06:29;98793.91;;;20.38;100.00
11349;BME280;5729;43.570;27.826;2023-08-08T04:08:54;98804.66;;;20.28;100.00
11349;BME280;5729;43.570;27.826;2023-08-08T04:11:20;98797.13;;;20.16;100.00
11349;BME280;5729;43.570;27.826;2023-08-08T04:13:46;98793.34;;;20.26;100.00
11349;BME280;5729;43.570;27.826;2023-08-08T04:16:11;98792.25;;;20.24;100.00
11349;BME280;5729;43.570;27.826;2023-08-08T04:18:36;98809.03;;;20.42;100.00
11349;BME280;5729;43.570;27.826;2023-08-08T04:21:02;98812.09;;;20.44;100.00
11349;BME280;5729;43.570;27.826;2023-08-08T04:23:27;98822.63;;;20.46;100.00
11349;BME280;5729;43.570;27.826;2023-08-08T04:25:53;98826.13;;;20.46;100.00
11349;BME280;5729;43.570;27.826;2023-08-08T04:28:19;98831.44;;;20.53;100.00
11349;BME280;5729;43.570;27.826;2023-08-08T04:30:44;98838.28;;;20.61;100.00
11349;BME280;5729;43.570;27.826;2023-08-08T04:33:10;98834.63;;;20.52;100.00
11349;BME280;5729;43.570;27.826;2023-08-08T04:35:35;98849.66;;;20.60;100.00
11349;BME280;5729;43.570;27.826;2023-08-08T04:38:01;98839.13;;;20.58;100.00
11349;BME280;5729;43.570;27.826;2023-08-08T04:40:28;98854.09;;;20.70;100.00
11349;BME280;5729;43.570;27.826;2023-08-08T04:42:53;98865.81;;;20.71;100.00
11349;BME280;5729;43.570;27.826;2023-08-08T04:45:19;98857.03;;;20.63;100.00
11349;BME280;5729;43.570;27.826;2023-08-08T04:47:46;98863.34;;;20.60;100.00
11349;BME280;5729;43.570;27.826;2023-08-08T04:50:11;98851.81;;;20.52;100.00
11349;BME280;5729;43.570;27.826;2023-08-08T04:52:37;98866.69;;;20.51;100.00
11349;BME280;5729;43.570;27.826;2023-08-08T04:55:03;98870.78;;;20.59;100.00
11349;BME280;5729;43.570;27.826;2023-08-08T04:57:28;98882.78;;;20.49;100.00
11349;BME280;5729;43.570;27.826;2023-08-08T04:59:54;98894.75;;;20.55;100.00
11349;BME280;5729;43.570;27.826;2023-08-08T05:02:19;98889.63;;;20.41;100.00
11349;BME280;5729;43.570;27.826;2023-08-08T05:04:44;98910.56;;;20.48;100.00
11349;BME280;5729;43.570;27.826;2023-08-08T05:07:10;98919.50;;;20.32;100.00
11349;BME280;5729;43.570;27.826;2023-08-08T05:09:35;98934.59;;;20.20;100.00
11349;BME280;5729;43.570;27.826;2023-08-08T05:12:01;98941.50;;;20.28;100.00
11349;BME280;5729;43.570;27.826;2023-08-08T05:14:27;98936.00;;;20.28;100.00
11349;BME280;5729;43.570;27.826;2023-08-08T05:16:52;98937.69;;;20.22;100.00
11349;BME280;5729;43.570;27.826;2023-08-08T05:19:18;98940.84;;;20.21;100.00
11349;BME280;5729;43.570;27.826;2023-08-08T05:21:43;98942.84;;;20.01;100.00
11349;BME280;5729;43.570;27.826;2023-08-08T05:24:09;98951.84;;;20.01;100.00
11349;BME280;5729;43.570;27.826;2023-08-08T05:26:34;98945.69;;;19.97;100.00
11349;BME280;5729;43.570;27.826;2023-08-08T05:28:59;98937.34;;;19.84;100.00
11349;BME280;5729;43.570;27.826;2023-08-08T05:31:25;98958.56;;;19.77;100.00
11349;BME280;5729;43.570;27.826;2023-08-08T05:33:50;98965.00;;;19.86;100.00
11349;BME280;5729;43.570;27.826;2023-08-08T05:36:16;98974.84;;;19.84;100.00
11349;BME280;5729;43.570;27.826;2023-08-08T05:38:41;98970.41;;;19.50;100.00
11349;BME280;5729;43.570;27.826;2023-08-08T05:41:07;98984.56;;;19.65;100.00
11349;BME280;5729;43.570;27.826;2023-08-08T05:43:33;98985.13;;;19.56;100.00
11349;BME280;5729;43.570;27.826;2023-08-08T05:45:58;98983.66;;;19.52;100.00
11349;BME280;5729;43.570;27.826;2023-08-08T05:48:24;98982.97;;;19.68;100.00
11349;BME280;5729;43.570;27.826;2023-08-08T05:50:49;98983.13;;;19.61;100.00
11349;BME280;5729;43.570;27.826;2023-08-08T05:53:14;98989.84;;;19.76;100.00
11349;BME280;5729;43.570;27.826;2023-08-08T05:55:41;98995.66;;;19.78;100.00
11349;BME280;5729;43.570;27.826;2023-08-08T05:58:08;98991.47;;;19.73;100.00
11349;BME280;5729;43.570;27.826;2023-08-08T06:00:33;99006.75;;;19.71;100.00
11349;BME280;5729;43.570;27.826;2023-08-08T06:02:59;98995.09;;;19.67;100.00
11349;BME280;5729;43.570;27.826;2023-08-08T06:05:24;98995.50;;;19.65;100.00
11349;BME280;5729;43.570;27.826;2023-08-08T06:07:50;98998.97;;;19.69;100.00
11349;BME280;5729;43.570;27.826;2023-08-08T06:10:15;99012.84;;;19.78;100.00
11349;BME280;5729;43.570;27.826;2023-08-08T06:12:41;98999.25;;;19.94;100.00
11349;BME280;5729;43.570;27.826;2023-08-08T06:15:07;99008.03;;;20.06;100.00
11349;BME280;5729;43.570;27.826;2023-08-08T06:17:33;99018.97;;;20.06;100.00
11349;BME280;5729;43.570;27.826;2023-08-08T06:19:59;99011.53;;;20.06;100.00
11349;BME280;5729;43.570;27.826;2023-08-08T06:22:25;99029.81;;;20.09;100.00
11349;BME280;5729;43.570;27.826;2023-08-08T06:24:50;99039.09;;;20.15;100.00
11349;BME280;5729;43.570;27.826;2023-08-08T06:27:16;99038.94;;;20.22;100.00
11349;BME280;5729;43.570;27.826;2023-08-08T06:29:42;99032.44;;;20.36;100.00
11349;BME280;5729;43.570;27.826;2023-08-08T06:32:07;99033.63;;;20.35;100.00
11349;BME280;5729;43.570;27.826;2023-08-08T06:34:33;99002.69;;;20.18;100.00
11349;BME280;5729;43.570;27.826;2023-08-08T06:36:58;99020.25;;;20.41;100.00
11349;BME280;5729;43.570;27.826;2023-08-08T06:39:24;99018.09;;;20.48;100.00
11349;BME280;5729;43.570;27.826;2023-08-08T06:41:50;99016.19;;;20.65;100.00
11349;BME280;5729;43.570;27.826;2023-08-08T06:44:15;98999.56;;;20.56;100.00
11349;BME280;5729;43.570;27.826;2023-08-08T06:46:41;99016.78;;;20.89;100.00
11349;BME280;5729;43.570;27.826;2023-08-08T06:49:06;99022.75;;;20.67;100.00
11349;BME280;5729;43.570;27.826;2023-08-08T06:51:32;99037.25;;;20.84;100.00
11349;BME280;5729;43.570;27.826;2023-08-08T06:53:58;99031.72;;;20.88;100.00
11349;BME280;5729;43.570;27.826;2023-08-08T06:56:23;99040.78;;;20.85;100.00
11349;BME280;5729;43.570;27.826;2023-08-08T06:58:51;99033.72;;;20.67;100.00
11349;BME280;5729;43.570;27.826;2023-08-08T07:01:16;99029.97;;;20.78;100.00
11349;BME280;5729;43.570;27.826;2023-08-08T07:03:42;99029.47;;;20.47;100.00
11349;BME280;5729;43.570;27.826;2023-08-08T07:06:09;99041.03;;;20.54;100.00
11349;BME280;5729;43.570;27.826;2023-08-08T07:08:35;99052.84;;;20.51;100.00
11349;BME280;5729;43.570;27.826;2023-08-08T07:11:00;99057.91;;;20.53;100.00
11349;BME280;5729;43.570;27.826;2023-08-08T07:13:25;99056.00;;;20.30;100.00
11349;BME280;5729;43.570;27.826;2023-08-08T07:15:51;99066.59;;;20.28;100.00
11349;BME280;5729;43.570;27.826;2023-08-08T07:18:17;99066.84;;;20.37;100.00
11349;BME280;5729;43.570;27.826;2023-08-08T07:20:42;99068.38;;;20.38;100.00
11349;BME280;5729;43.570;27.826;2023-08-08T07:23:08;99071.81;;;20.42;100.00
11349;BME280;5729;43.570;27.826;2023-08-08T07:25:34;99079.34;;;20.38;100.00
11349;BME280;5729;43.570;27.826;2023-08-08T07:27:59;99070.59;;;20.43;100.00
11349;BME280;5729;43.570;27.826;2023-08-08T07:30:25;99076.09;;;20.63;100.00
11349;BME280;5729;43.570;27.826;2023-08-08T07:32:51;99081.03;;;20.68;100.00
11349;BME280;5729;43.570;27.826;2023-08-08T07:35:16;99070.69;;;20.59;100.00
11349;BME280;5729;43.570;27.826;2023-08-08T07:37:42;99086.34;;;20.39;100.00
11349;BME280;5729;43.570;27.826;2023-08-08T07:40:15;99074.41;;;20.49;100.00
11349;BME280;5729;43.570;27.826;2023-08-08T07:42:43;99061.22;;;20.44;100.00
11349;BME280;5729;43.570;27.826;2023-08-08T07:45:08;99068.56;;;20.47;100.00
11349;BME280;5729;43.570;27.826;2023-08-08T07:47:34;99087.53;;;20.38;100.00
11349;BME280;5729;43.570;27.826;2023-08-08T07:50:00;99092.25;;;20.38;100.00
11349;BME280;5729;43.570;27.826;2023-08-08T07:52:25;99092.06;;;20.25;100.00
11349;BME280;5729;43.570;27.826;2023-08-08T07:54:51;99083.50;;;20.23;100.00
11349;BME280;5729;43.570;27.826;2023-08-08T07:57:16;99087.63;;;20.11;100.00
11349;BME280;5729;43.570;27.826;2023-08-08T07:59:42;99074.16;;;20.01;100.00
11349;BME280;5729;43.570;27.826;2023-08-08T08:02:07;99086.88;;;20.11;100.00
11349;BME280;5729;43.570;27.826;2023-08-08T08:04:33;99092.47;;;20.23;100.00
11349;BME280;5729;43.570;27.826;2023-08-08T08:06:59;99101.88;;;20.22;100.00
11349;BME280;5729;43.570;27.826;2023-08-08T08:09:24;99094.66;;;20.12;100.00
11349;BME280;5729;43.570;27.826;2023-08-08T08:11:50;99099.16;;;20.22;100.00
11349;BME280;5729;43.570;27.826;2023-08-08T08:14:15;99099.09;;;20.26;100.00
11349;BME280;5729;43.570;27.826;2023-08-08T08:16:41;99097.59;;;20.21;100.00
11349;BME280;5729;43.570;27.826;2023-08-08T08:19:06;99086.66;;;20.21;100.00
11349;BME280;5729;43.570;27.826;2023-08-08T08:21:32;99079.84;;;20.10;100.00
11349;BME280;5729;43.570;27.826;2023-08-08T08:23:57;99095.25;;;19.80;100.00
11349;BME280;5729;43.570;27.826;2023-08-08T08:26:22;99089.25;;;19.66;100.00
11349;BME280;5729;43.570;27.826;2023-08-08T08:28:48;99077.97;;;19.64;100.00
11349;BME280;5729;43.570;27.826;2023-08-08T08:31:13;99082.06;;;19.52;100.00
11349;BME280;5729;43.570;27.826;2023-08-08T08:33:39;99085.44;;;19.60;100.00
11349;BME280;5729;43.570;27.826;2023-08-08T08:36:04;99087.47;;;19.55;100.00
11349;BME280;5729;43.570;27.826;2023-08-08T08:38:30;99088.31;;;19.52;100.00
11349;BME280;5729;43.570;27.826;2023-08-08T08:40:56;99086.47;;;19.42;100.00
11349;BME280;5729;43.570;27.826;2023-08-08T08:43:22;99084.44;;;19.23;100.00
11349;BME280;5729;43.570;27.826;2023-08-08T08:45:52;99097.50;;;19.12;100.00
11349;BME280;5729;43.570;27.826;2023-08-08T08:48:18;99082.53;;;19.20;100.00
11349;BME280;5729;43.570;27.826;2023-08-08T08:50:47;99080.47;;;19.28;100.00
11349;BME280;5729;43.570;27.826;2023-08-08T08:53:13;99071.38;;;19.34;100.00
11349;BME280;5729;43.570;27.826;2023-08-08T08:55:40;99052.03;;;19.25;100.00
11349;BME280;5729;43.570;27.826;2023-08-08T08:58:06;99051.66;;;19.23;100.00
11349;BME280;5729;43.570;27.826;2023-08-08T09:00:31;99060.22;;;19.25;100.00
11349;BME280;5729;43.570;27.826;2023-08-08T09:02:58;99077.78;;;19.24;100.00
11349;BME280;5729;43.570;27.826;2023-08-08T09:05:25;99079.94;;;19.36;100.00
11349;BME280;5729;43.570;27.826;2023-08-08T09:07:50;99087.63;;;19.45;100.00
11349;BME280;5729;43.570;27.826;2023-08-08T09:10:17;99068.81;;;19.50;100.00
11349;BME280;5729;43.570;27.826;2023-08-08T09:12:43;99051.53;;;19.30;100.00
11349;BME280;5729;43.570;27.826;2023-08-08T09:15:09;99071.56;;;19.23;100.00
11349;BME280;5729;43.570;27.826;2023-08-08T09:17:36;99074.25;;;19.27;100.00
11349;BME280;5729;43.570;27.826;2023-08-08T09:20:05;99083.25;;;19.24;100.00
11349;BME280;5729;43.570;27.826;2023-08-08T09:22:32;99078.97;;;19.23;100.00
11349;BME280;5729;43.570;27.826;2023-08-08T09:24:57;99067.41;;;19.39;100.00
11349;BME280;5729;43.570;27.826;2023-08-08T09:27:23;99065.31;;;19.50;100.00
11349;BME280;5729;43.570;27.826;2023-08-08T09:29:48;99071.22;;;19.45;100.00
11349;BME280;5729;43.570;27.826;2023-08-08T09:32:14;99074.72;;;19.45;100.00
11349;BME280;5729;43.570;27.826;2023-08-08T09:34:41;99071.03;;;19.32;100.00
11349;BME280;5729;43.570;27.826;2023-08-08T09:37:07;99070.56;;;19.37;100.00
11349;BME280;5729;43.570;27.826;2023-08-08T09:39:33;99064.78;;;19.32;100.00
11349;BME280;5729;43.570;27.826;2023-08-08T09:42:01;99056.72;;;19.25;100.00
11349;BME280;5729;43.570;27.826;2023-08-08T09:44:27;99076.59;;;19.25;100.00
11349;BME280;5729;43.570;27.826;2023-08-08T09:46:55;99073.56;;;19.19;100.00
11349;BME280;5729;43.570;27.826;2023-08-08T09:49:21;99078.53;;;19.28;100.00
11349;BME280;5729;43.570;27.826;2023-08-08T09:51:47;99077.03;;;19.23;100.00
11349;BME280;5729;43.570;27.826;2023-08-08T09:54:14;99087.00;;;19.34;100.00
11349;BME280;5729;43.570;27.826;2023-08-08T09:56:39;99101.19;;;19.25;100.00
11349;BME280;5729;43.570;27.826;2023-08-08T09:59:05;99118.94;;;19.13;100.00
11349;BME280;5729;43.570;27.826;2023-08-08T10:01:32;99120.94;;;19.09;100.00
11349;BME280;5729;43.570;27.826;2023-08-08T10:03:58;99105.53;;;19.22;100.00
11349;BME280;5729;43.570;27.826;2023-08-08T10:06:25;99108.66;;;19.21;100.00
11349;BME280;5729;43.570;27.826;2023-08-08T10:08:51;99115.81;;;19.15;100.00
11349;BME280;5729;43.570;27.826;2023-08-08T10:11:17;99118.75;;;18.97;100.00
11349;BME280;5729;43.570;27.826;2023-08-08T10:13:50;99094.47;;;18.76;100.00
11349;BME280;5729;43.570;27.826;2023-08-08T10:16:16;99115.09;;;18.80;100.00
11349;BME280;5729;43.570;27.826;2023-08-08T10:18:44;99113.66;;;18.72;100.00
11349;BME280;5729;43.570;27.826;2023-08-08T10:21:11;99104.63;;;18.75;100.00
11349;BME280;5729;43.570;27.826;2023-08-08T10:23:38;99107.34;;;18.75;100.00
11349;BME280;5729;43.570;27.826;2023-08-08T10:26:06;99090.94;;;18.79;100.00
11349;BME280;5729;43.570;27.826;2023-08-08T10:28:52;99110.56;;;18.70;100.00
11349;BME280;5729;43.570;27.826;2023-08-08T10:31:20;99121.22;;;18.61;100.00
11349;BME280;5729;43.570;27.826;2023-08-08T10:33:46;99138.78;;;18.57;100.00
11349;BME280;5729;43.570;27.826;2023-08-08T10:36:12;99131.75;;;18.59;100.00
11349;BME280;5729;43.570;27.826;2023-08-08T10:38:49;99141.00;;;18.69;100.00
11349;BME280;5729;43.570;27.826;2023-08-08T10:41:19;99136.91;;;18.84;100.00
11349;BME280;5729;43.570;27.826;2023-08-08T10:43:54;99134.31;;;18.73;100.00
11349;BME280;5729;43.570;27.826;2023-08-08T10:46:28;99142.22;;;18.95;100.00
11349;BME280;5729;43.570;27.826;2023-08-08T10:48:58;99146.09;;;19.24;100.00
11349;BME280;5729;43.570;27.826;2023-08-08T10:54:06;99138.94;;;19.84;100.00
11349;BME280;5729;43.570;27.826;2023-08-08T10:56:32;99137.00;;;20.27;100.00
11349;BME280;5729;43.570;27.826;2023-08-08T10:59:00;99130.91;;;20.59;100.00
11349;BME280;5729;43.570;27.826;2023-08-08T11:01:37;99127.91;;;21.10;100.00
11349;BME280;5729;43.570;27.826;2023-08-08T11:04:03;99121.34;;;21.88;100.00
11349;BME280;5729;43.570;27.826;2023-08-08T11:06:32;99115.81;;;22.62;100.00
11349;BME280;5729;43.570;27.826;2023-08-08T11:08:58;99116.75;;;24.30;100.00
11349;BME280;5729;43.570;27.826;2023-08-08T11:11:23;99108.91;;;26.10;100.00
11349;BME280;5729;43.570;27.826;2023-08-08T11:13:51;99109.88;;;27.28;100.00
11349;BME280;5729;43.570;27.826;2023-08-08T11:16:17;99105.66;;;27.89;100.00
11349;BME280;5729;43.570;27.826;2023-08-08T11:18:43;99104.69;;;28.16;100.00
11349;BME280;5729;43.570;27.826;2023-08-08T11:21:10;99116.94;;;27.86;100.00
11349;BME280;5729;43.570;27.826;2023-08-08T11:23:36;99114.25;;;27.20;100.00
11349;BME280;5729;43.570;27.826;2023-08-08T11:26:03;99099.31;;;26.66;100.00
11349;BME280;5729;43.570;27.826;2023-08-08T11:28:28;99101.19;;;26.60;100.00
11349;BME280;5729;43.570;27.826;2023-08-08T11:30:55;99099.72;;;26.92;100.00
11349;BME280;5729;43.570;27.826;2023-08-08T11:33:20;99107.00;;;26.71;100.00
11349;BME280;5729;43.570;27.826;2023-08-08T11:35:46;99099.13;;;26.79;100.00
11349;BME280;5729;43.570;27.826;2023-08-08T11:38:14;99096.69;;;27.56;100.00
11349;BME280;5729;43.570;27.826;2023-08-08T11:40:40;99097.31;;;28.13;100.00
11349;BME280;5729;43.570;27.826;2023-08-08T11:43:06;99104.50;;;28.87;100.00
11349;BME280;5729;43.570;27.826;2023-08-08T11:45:32;99091.94;;;29.07;100.00
11349;BME280;5729;43.570;27.826;2023-08-08T11:47:59;99088.41;;;28.77;100.00
11349;BME280;5729;43.570;27.826;2023-08-08T11:50:26;99087.28;;;28.54;100.00
11349;BME280;5729;43.570;27.826;2023-08-08T11:52:53;99086.25;;;29.51;100.00
11349;BME280;5729;43.570;27.826;2023-08-08T11:55:20;99092.31;;;30.10;84.27
11349;BME280;5729;43.570;27.826;2023-08-08T11:57:47;99089.81;;;30.64;73.29
11349;BME280;5729;43.570;27.826;2023-08-08T12:00:13;99093.00;;;31.14;73.10
11349;BME280;5729;43.570;27.826;2023-08-08T12:02:41;99085.06;;;31.44;81.21
11349;BME280;5729;43.570;27.826;2023-08-08T12:05:07;99084.34;;;32.14;71.83
11349;BME280;5729;43.570;27.826;2023-08-08T12:07:35;99083.63;;;32.30;61.80
11349;BME280;5729;43.570;27.826;2023-08-08T12:10:03;99083.16;;;32.37;62.98
11349;BME280;5729;43.570;27.826;2023-08-08T12:12:28;99081.38;;;32.34;57.62
11349;BME280;5729;43.570;27.826;2023-08-08T12:14:56;99077.06;;;32.39;55.16
11349;BME280;5729;43.570;27.826;2023-08-08T12:17:21;99068.13;;;32.13;55.64
11349;BME280;5729;43.570;27.826;2023-08-08T12:19:47;99068.63;;;32.05;55.50
11349;BME280;5729;43.570;27.826;2023-08-08T12:22:14;99058.47;;;32.02;59.62
11349;BME280;5729;43.570;27.826;2023-08-08T12:24:39;99068.75;;;31.68;55.93
11349;BME280;5729;43.570;27.826;2023-08-08T12:27:05;99065.28;;;31.96;69.57
11349;BME280;5729;43.570;27.826;2023-08-08T12:29:30;99071.84;;;31.87;58.54
11349;BME280;5729;43.570;27.826;2023-08-08T12:31:56;99065.28;;;31.96;63.46
11349;BME280;5729;43.570;27.826;2023-08-08T12:34:22;99067.59;;;32.03;57.34
11349;BME280;5729;43.570;27.826;2023-08-08T12:36:47;99067.31;;;31.90;58.68
11349;BME280;5729;43.570;27.826;2023-08-08T12:39:12;99069.56;;;31.80;64.41
11349;BME280;5729;43.570;27.826;2023-08-08T12:41:39;99068.16;;;31.53;59.87
11349;BME280;5729;43.570;27.826;2023-08-08T12:44:05;99062.00;;;31.92;57.15
11349;BME280;5729;43.570;27.826;2023-08-08T12:46:31;99072.88;;;31.90;59.93
11349;BME280;5729;43.570;27.826;2023-08-08T12:48:56;99045.53;;;31.94;58.60